sensor_id;sensor_type;location;lat;lon;timestamp;temperature;humidity
13174;DHT22;6652;48.802;9.190;2023-07-20T00:00:01;20.90;82.50
13174;DHT22;6652;48.802;9.190;2023-07-20T00:02:29;20.80;82.90
13174;DHT22;6652;48.802;9.190;2023-07-20T00:04:55;20.70;82.80
13174;DHT22;6652;48.802;9.190;2023-07-20T00:07:25;20.70;82.80
13174;DHT22;6652;48.802;9.190;2023-07-20T00:09:51;20.70;82.50
13174;DHT22;6652;48.802;9.190;2023-07-20T00:12:18;20.60;82.40
13174;DHT22;6652;48.802;9.190;2023-07-20T00:14:45;20.60;82.30
13174;DHT22;6652;48.802;9.190;2023-07-20T00:17:12;20.50;81.90
13174;DHT22;6652;48.802;9.190;2023-07-20T00:19:38;20.30;81.90
13174;DHT22;6652;48.802;9.190;2023-07-20T00:22:05;20.30;81.40
13174;DHT22;6652;48.802;9.190;2023-07-20T00:24:33;20.30;81.00
13174;DHT22;6652;48.802;9.190;2023-07-20T00:27:00;20.30;80.60
13174;DHT22;6652;48.802;9.190;2023-07-20T00:29:28;20.20;81.10
13174;DHT22;6652;48.802;9.190;2023-07-20T00:31:55;20.20;80.60
13174;DHT22;6652;48.802;9.190;2023-07-20T00:34:21;20.10;80.50
13174;DHT22;6652;48.802;9.190;2023-07-20T00:36:48;20.10;80.40
13174;DHT22;6652;48.802;9.190;2023-07-20T00:39:15;20.10;80.20
13174;DHT22;6652;48.802;9.190;2023-07-20T00:41:43;20.00;79.80
13174;DHT22;6652;48.802;9.190;2023-07-20T00:44:10;20.00;79.70
13174;DHT22;6652;48.802;9.190;2023-07-20T00:46:37;20.00;79.30
13174;DHT22;6652;48.802;9.190;2023-07-20T00:49:04;20.00;80.00
13174;DHT22;6652;48.802;9.190;2023-07-20T00:51:31;19.90;78.60
13174;DHT22;6652;48.802;9.190;2023-07-20T00:53:58;19.90;79.10
13174;DHT22;6652;48.802;9.190;2023-07-20T00:56:25;20.00;79.40
13174;DHT22;6652;48.802;9.190;2023-07-20T00:58:53;20.00;79.10
13174;DHT22;6652;48.802;9.190;2023-07-20T01:01:22;19.90;79.20
13174;DHT22;6652;48.802;9.190;2023-07-20T01:03:49;19.90;79.00
13174;DHT22;6652;48.802;9.190;2023-07-20T01:06:26;19.90;79.00
13174;DHT22;6652;48.802;9.190;2023-07-20T01:09:07;19.80;79.00
13174;DHT22;6652;48.802;9.190;2023-07-20T01:11:38;19.80;79.60
13174;DHT22;6652;48.802;9.190;2023-07-20T01:14:10;19.70;79.40
13174;DHT22;6652;48.802;9.190;2023-07-20T01:16:38;19.60;79.50
13174;DHT22;6652;48.802;9.190;2023-07-20T01:19:05;19.60;80.00
13174;DHT22;6652;48.802;9.190;2023-07-20T01:21:40;19.50;80.20
13174;DHT22;6652;48.802;9.190;2023-07-20T01:24:27;19.50;80.50
13174;DHT22;6652;48.802;9.190;2023-07-20T01:27:20;19.50;81.00
13174;DHT22;6652;48.802;9.190;2023-07-20T01:30:25;19.40;81.00
13174;DHT22;6652;48.802;9.190;2023-07-20T01:32:56;19.30;81.50
13174;DHT22;6652;48.802;9.190;2023-07-20T01:35:27;19.30;81.80
13174;DHT22;6652;48.802;9.190;2023-07-20T01:37:55;19.20;82.00
13174;DHT22;6652;48.802;9.190;2023-07-20T01:40:24;19.10;82.40
13174;DHT22;6652;48.802;9.190;2023-07-20T01:42:51;19.10;83.00
13174;DHT22;6652;48.802;9.190;2023-07-20T01:45:19;19.10;83.30
13174;DHT22;6652;48.802;9.190;2023-07-20T01:47:46;19.00;83.60
13174;DHT22;6652;48.802;9.190;2023-07-20T01:50:14;19.00;83.70
13174;DHT22;6652;48.802;9.190;2023-07-20T01:52:40;19.00;83.90
13174;DHT22;6652;48.802;9.190;2023-07-20T01:55:08;19.00;83.90
13174;DHT22;6652;48.802;9.190;2023-07-20T01:57:35;18.90;84.10
13174;DHT22;6652;48.802;9.190;2023-07-20T02:00:02;18.90;84.60
13174;DHT22;6652;48.802;9.190;2023-07-20T02:02:29;18.90;84.90
13174;DHT22;6652;48.802;9.190;2023-07-20T02:04:56;18.90;84.90
13174;DHT22;6652;48.802;9.190;2023-07-20T02:07:24;18.90;85.20
13174;DHT22;6652;48.802;9.190;2023-07-20T02:09:51;18.80;85.50
13174;DHT22;6652;48.802;9.190;2023-07-20T02:12:18;18.80;85.90
13174;DHT22;6652;48.802;9.190;2023-07-20T02:14:45;18.70;86.40
13174;DHT22;6652;48.802;9.190;2023-07-20T02:17:12;18.70;86.70
13174;DHT22;6652;48.802;9.190;2023-07-20T02:19:40;18.60;86.70
13174;DHT22;6652;48.802;9.190;2023-07-20T02:22:07;18.70;87.30
13174;DHT22;6652;48.802;9.190;2023-07-20T02:24:35;18.60;87.30
13174;DHT22;6652;48.802;9.190;2023-07-20T02:27:02;18.60;87.50
13174;DHT22;6652;48.802;9.190;2023-07-20T02:29:28;18.60;87.90
13174;DHT22;6652;48.802;9.190;2023-07-20T02:31:55;18.50;88.10
13174;DHT22;6652;48.802;9.190;2023-07-20T02:34:22;18.50;88.50
13174;DHT22;6652;48.802;9.190;2023-07-20T02:36:49;18.40;88.90
13174;DHT22;6652;48.802;9.190;2023-07-20T02:39:15;18.40;89.30
13174;DHT22;6652;48.802;9.190;2023-07-20T02:41:43;18.30;89.50
13174;DHT22;6652;48.802;9.190;2023-07-20T02:44:10;18.30;89.90
13174;DHT22;6652;48.802;9.190;2023-07-20T02:46:37;18.30;90.00
13174;DHT22;6652;48.802;9.190;2023-07-20T02:49:04;18.30;90.10
13174;DHT22;6652;48.802;9.190;2023-07-20T02:51:30;18.20;90.20
13174;DHT22;6652;48.802;9.190;2023-07-20T02:53:57;18.20;90.40
13174;DHT22;6652;48.802;9.190;2023-07-20T02:56:24;18.20;90.60
13174;DHT22;6652;48.802;9.190;2023-07-20T02:58:52;18.10;90.60
13174;DHT22;6652;48.802;9.190;2023-07-20T03:01:19;18.10;90.80
13174;DHT22;6652;48.802;9.190;2023-07-20T03:03:46;18.10;90.90
13174;DHT22;6652;48.802;9.190;2023-07-20T03:06:13;18.00;91.00
13174;DHT22;6652;48.802;9.190;2023-07-20T03:08:40;18.00;91.50
13174;DHT22;6652;48.802;9.190;2023-07-20T03:11:12;18.00;91.50
13174;DHT22;6652;48.802;9.190;2023-07-20T03:13:39;17.90;91.60
13174;DHT22;6652;48.802;9.190;2023-07-20T03:16:07;17.80;91.70
13174;DHT22;6652;48.802;9.190;2023-07-20T03:18:36;17.80;92.10
13174;DHT22;6652;48.802;9.190;2023-07-20T03:21:03;17.80;92.80
13174;DHT22;6652;48.802;9.190;2023-07-20T03:23:30;17.80;92.50
13174;DHT22;6652;48.802;9.190;2023-07-20T03:25:56;17.80;92.70
13174;DHT22;6652;48.802;9.190;2023-07-20T03:28:23;17.80;92.80
13174;DHT22;6652;48.802;9.190;2023-07-20T03:30:53;17.70;92.80
13174;DHT22;6652;48.802;9.190;2023-07-20T03:33:21;17.70;92.90
13174;DHT22;6652;48.802;9.190;2023-07-20T03:35:48;17.70;93.20
13174;DHT22;6652;48.802;9.190;2023-07-20T03:38:15;17.70;93.20
13174;DHT22;6652;48.802;9.190;2023-07-20T03:40:49;17.70;93.40
13174;DHT22;6652;48.802;9.190;2023-07-20T03:43:16;17.70;94.10
13174;DHT22;6652;48.802;9.190;2023-07-20T03:45:43;17.70;94.10
13174;DHT22;6652;48.802;9.190;2023-07-20T03:48:09;17.70;94.10
13174;DHT22;6652;48.802;9.190;2023-07-20T03:50:37;17.70;94.40
13174;DHT22;6652;48.802;9.190;2023-07-20T03:53:04;17.70;94.40
13174;DHT22;6652;48.802;9.190;2023-07-20T03:55:31;17.70;94.20
13174;DHT22;6652;48.802;9.190;2023-07-20T03:57:58;17.70;94.20
13174;DHT22;6652;48.802;9.190;2023-07-20T04:00:24;17.70;94.50
13174;DHT22;6652;48.802;9.190;2023-07-20T04:02:51;17.70;94.60
13174;DHT22;6652;48.802;9.190;2023-07-20T04:05:18;17.70;94.70
13174;DHT22;6652;48.802;9.190;2023-07-20T04:07:46;17.70;94.70
13174;DHT22;6652;48.802;9.190;2023-07-20T04:10:13;17.80;95.20
13174;DHT22;6652;48.802;9.190;2023-07-20T04:12:40;17.80;95.20
13174;DHT22;6652;48.802;9.190;2023-07-20T04:15:08;18.00;95.40
13174;DHT22;6652;48.802;9.190;2023-07-20T04:17:35;18.00;95.30
13174;DHT22;6652;48.802;9.190;2023-07-20T04:20:02;18.20;95.50
13174;DHT22;6652;48.802;9.190;2023-07-20T04:22:29;18.60;95.40
13174;DHT22;6652;48.802;9.190;2023-07-20T04:24:57;19.20;94.90
13174;DHT22;6652;48.802;9.190;2023-07-20T04:27:24;19.70;94.00
13174;DHT22;6652;48.802;9.190;2023-07-20T04:29:51;20.20;93.30
13174;DHT22;6652;48.802;9.190;2023-07-20T04:32:18;20.70;92.30
13174;DHT22;6652;48.802;9.190;2023-07-20T04:34:45;21.20;92.00
13174;DHT22;6652;48.802;9.190;2023-07-20T04:37:11;21.70;91.10
13174;DHT22;6652;48.802;9.190;2023-07-20T04:39:38;22.10;90.00
13174;DHT22;6652;48.802;9.190;2023-07-20T04:42:07;22.50;90.40
13174;DHT22;6652;48.802;9.190;2023-07-20T04:44:33;23.00;87.10
13174;DHT22;6652;48.802;9.190;2023-07-20T04:47:00;23.10;84.60
13174;DHT22;6652;48.802;9.190;2023-07-20T04:49:28;23.40;83.80
13174;DHT22;6652;48.802;9.190;2023-07-20T04:51:54;23.50;82.40
13174;DHT22;6652;48.802;9.190;2023-07-20T04:54:21;23.90;82.00
13174;DHT22;6652;48.802;9.190;2023-07-20T04:56:48;24.10;81.20
13174;DHT22;6652;48.802;9.190;2023-07-20T04:59:16;24.50;80.40
13174;DHT22;6652;48.802;9.190;2023-07-20T05:01:43;24.90;78.10
13174;DHT22;6652;48.802;9.190;2023-07-20T05:04:09;25.20;77.10
13174;DHT22;6652;48.802;9.190;2023-07-20T05:06:36;25.60;74.90
13174;DHT22;6652;48.802;9.190;2023-07-20T05:09:04;25.90;74.30
13174;DHT22;6652;48.802;9.190;2023-07-20T05:11:33;26.30;72.90
13174;DHT22;6652;48.802;9.190;2023-07-20T05:14:00;26.60;70.90
13174;DHT22;6652;48.802;9.190;2023-07-20T05:16:28;26.80;69.60
13174;DHT22;6652;48.802;9.190;2023-07-20T05:18:55;27.00;69.30
13174;DHT22;6652;48.802;9.190;2023-07-20T05:21:22;27.30;67.80
13174;DHT22;6652;48.802;9.190;2023-07-20T05:23:49;27.70;68.00
13174;DHT22;6652;48.802;9.190;2023-07-20T05:26:16;27.90;65.90
13174;DHT22;6652;48.802;9.190;2023-07-20T05:28:43;28.30;65.80
13174;DHT22;6652;48.802;9.190;2023-07-20T05:31:10;28.60;65.10
13174;DHT22;6652;48.802;9.190;2023-07-20T05:33:38;28.90;63.00
13174;DHT22;6652;48.802;9.190;2023-07-20T05:36:05;29.30;62.30
13174;DHT22;6652;48.802;9.190;2023-07-20T05:38:31;29.80;61.00
13174;DHT22;6652;48.802;9.190;2023-07-20T05:41:00;30.20;59.10
13174;DHT22;6652;48.802;9.190;2023-07-20T05:43:27;30.60;57.90
13174;DHT22;6652;48.802;9.190;2023-07-20T05:45:54;30.80;57.50
13174;DHT22;6652;48.802;9.190;2023-07-20T05:48:21;31.30;56.70
13174;DHT22;6652;48.802;9.190;2023-07-20T05:50:49;31.70;56.30
13174;DHT22;6652;48.802;9.190;2023-07-20T05:53:16;31.90;54.70
13174;DHT22;6652;48.802;9.190;2023-07-20T05:55:43;32.00;54.60
13174;DHT22;6652;48.802;9.190;2023-07-20T05:58:10;32.10;53.50
13174;DHT22;6652;48.802;9.190;2023-07-20T06:00:36;32.10;52.60
13174;DHT22;6652;48.802;9.190;2023-07-20T06:03:03;32.20;52.70
13174;DHT22;6652;48.802;9.190;2023-07-20T06:05:30;32.30;51.90
13174;DHT22;6652;48.802;9.190;2023-07-20T06:07:58;32.40;51.80
13174;DHT22;6652;48.802;9.190;2023-07-20T06:10:26;32.80;51.10
13174;DHT22;6652;48.802;9.190;2023-07-20T06:12:53;32.70;51.10
13174;DHT22;6652;48.802;9.190;2023-07-20T06:15:28;32.60;51.40
13174;DHT22;6652;48.802;9.190;2023-07-20T06:17:55;32.90;51.10
13174;DHT22;6652;48.802;9.190;2023-07-20T06:20:23;33.40;50.60
13174;DHT22;6652;48.802;9.190;2023-07-20T06:22:50;33.90;49.50
13174;DHT22;6652;48.802;9.190;2023-07-20T06:25:18;33.80;49.50
13174;DHT22;6652;48.802;9.190;2023-07-20T06:27:46;33.80;49.10
13174;DHT22;6652;48.802;9.190;2023-07-20T06:30:13;34.20;49.00
13174;DHT22;6652;48.802;9.190;2023-07-20T06:32:39;34.50;48.50
13174;DHT22;6652;48.802;9.190;2023-07-20T06:35:07;34.60;47.20
13174;DHT22;6652;48.802;9.190;2023-07-20T06:37:34;33.90;48.10
13174;DHT22;6652;48.802;9.190;2023-07-20T06:40:01;33.50;48.40
13174;DHT22;6652;48.802;9.190;2023-07-20T06:42:30;33.10;49.10
13174;DHT22;6652;48.802;9.190;2023-07-20T06:44:57;33.30;49.60
13174;DHT22;6652;48.802;9.190;2023-07-20T06:47:24;33.40;50.00
13174;DHT22;6652;48.802;9.190;2023-07-20T06:49:51;33.60;48.90
13174;DHT22;6652;48.802;9.190;2023-07-20T06:52:17;33.60;49.30
13174;DHT22;6652;48.802;9.190;2023-07-20T06:54:43;33.40;48.90
13174;DHT22;6652;48.802;9.190;2023-07-20T06:57:10;33.20;49.50
13174;DHT22;6652;48.802;9.190;2023-07-20T06:59:39;32.70;49.40
13174;DHT22;6652;48.802;9.190;2023-07-20T07:02:06;32.80;50.60
13174;DHT22;6652;48.802;9.190;2023-07-20T07:04:33;33.40;49.50
13174;DHT22;6652;48.802;9.190;2023-07-20T07:07:01;34.10;49.50
13174;DHT22;6652;48.802;9.190;2023-07-20T07:09:29;34.80;47.30
13174;DHT22;6652;48.802;9.190;2023-07-20T07:11:55;35.00;46.90
13174;DHT22;6652;48.802;9.190;2023-07-20T07:14:22;34.90;46.30
13174;DHT22;6652;48.802;9.190;2023-07-20T07:16:50;35.30;46.10
13174;DHT22;6652;48.802;9.190;2023-07-20T07:19:17;35.60;46.20
13174;DHT22;6652;48.802;9.190;2023-07-20T07:21:44;35.80;44.80
13174;DHT22;6652;48.802;9.190;2023-07-20T07:24:11;35.50;45.60
13174;DHT22;6652;48.802;9.190;2023-07-20T07:26:38;35.80;44.60
13174;DHT22;6652;48.802;9.190;2023-07-20T07:29:05;35.60;44.40
13174;DHT22;6652;48.802;9.190;2023-07-20T07:31:34;35.70;45.20
13174;DHT22;6652;48.802;9.190;2023-07-20T07:34:06;36.10;44.30
13174;DHT22;6652;48.802;9.190;2023-07-20T07:36:33;36.50;43.10
13174;DHT22;6652;48.802;9.190;2023-07-20T07:39:00;36.60;43.90
13174;DHT22;6652;48.802;9.190;2023-07-20T07:41:26;36.40;43.00
13174;DHT22;6652;48.802;9.190;2023-07-20T07:43:53;36.70;43.60
13174;DHT22;6652;48.802;9.190;2023-07-20T07:46:20;36.60;42.10
13174;DHT22;6652;48.802;9.190;2023-07-20T07:48:47;35.60;42.30
13174;DHT22;6652;48.802;9.190;2023-07-20T07:51:15;35.00;44.70
13174;DHT22;6652;48.802;9.190;2023-07-20T07:53:42;35.60;44.40
13174;DHT22;6652;48.802;9.190;2023-07-20T07:56:09;35.30;44.90
13174;DHT22;6652;48.802;9.190;2023-07-20T07:58:36;34.40;44.30
13174;DHT22;6652;48.802;9.190;2023-07-20T08:01:03;34.80;45.00
13174;DHT22;6652;48.802;9.190;2023-07-20T08:03:30;34.90;44.60
13174;DHT22;6652;48.802;9.190;2023-07-20T08:05:57;33.90;45.20
13174;DHT22;6652;48.802;9.190;2023-07-20T08:08:25;33.60;46.60
13174;DHT22;6652;48.802;9.190;2023-07-20T08:10:53;34.10;46.70
13174;DHT22;6652;48.802;9.190;2023-07-20T08:13:21;35.10;45.00
13174;DHT22;6652;48.802;9.190;2023-07-20T08:15:50;34.90;44.60
13174;DHT22;6652;48.802;9.190;2023-07-20T08:18:17;35.00;43.80
13174;DHT22;6652;48.802;9.190;2023-07-20T08:20:44;34.80;43.70
13174;DHT22;6652;48.802;9.190;2023-07-20T08:23:11;34.80;44.10
13174;DHT22;6652;48.802;9.190;2023-07-20T08:25:39;35.00;43.80
13174;DHT22;6652;48.802;9.190;2023-07-20T08:28:09;33.90;43.90
13174;DHT22;6652;48.802;9.190;2023-07-20T08:30:40;32.50;46.30
13174;DHT22;6652;48.802;9.190;2023-07-20T08:33:07;31.50;48.30
13174;DHT22;6652;48.802;9.190;2023-07-20T08:35:34;30.50;50.10
13174;DHT22;6652;48.802;9.190;2023-07-20T08:38:01;31.10;51.10
13174;DHT22;6652;48.802;9.190;2023-07-20T08:40:30;31.70;49.50
13174;DHT22;6652;48.802;9.190;2023-07-20T08:42:58;32.80;49.00
13174;DHT22;6652;48.802;9.190;2023-07-20T08:45:26;33.80;47.70
13174;DHT22;6652;48.802;9.190;2023-07-20T08:47:55;34.60;45.60
13174;DHT22;6652;48.802;9.190;2023-07-20T08:50:23;35.20;44.20
13174;DHT22;6652;48.802;9.190;2023-07-20T08:52:52;35.70;43.70
13174;DHT22;6652;48.802;9.190;2023-07-20T08:55:20;36.40;42.80
13174;DHT22;6652;48.802;9.190;2023-07-20T08:57:50;36.70;42.20
13174;DHT22;6652;48.802;9.190;2023-07-20T09:00:21;36.70;41.20
13174;DHT22;6652;48.802;9.190;2023-07-20T09:02:50;35.70;42.10
13174;DHT22;6652;48.802;9.190;2023-07-20T09:05:17;34.30;43.40
13174;DHT22;6652;48.802;9.190;2023-07-20T09:07:44;33.80;44.30
13174;DHT22;6652;48.802;9.190;2023-07-20T09:10:12;34.10;44.80
13174;DHT22;6652;48.802;9.190;2023-07-20T09:12:40;35.30;44.40
13174;DHT22;6652;48.802;9.190;2023-07-20T09:15:08;36.10;42.20
13174;DHT22;6652;48.802;9.190;2023-07-20T09:17:36;36.30;41.10
13174;DHT22;6652;48.802;9.190;2023-07-20T09:20:05;35.10;40.80
13174;DHT22;6652;48.802;9.190;2023-07-20T09:22:34;33.90;43.00
13174;DHT22;6652;48.802;9.190;2023-07-20T09:25:00;33.00;44.40
13174;DHT22;6652;48.802;9.190;2023-07-20T09:27:34;32.30;44.40
13174;DHT22;6652;48.802;9.190;2023-07-20T09:30:04;32.60;45.20
13174;DHT22;6652;48.802;9.190;2023-07-20T09:32:40;32.50;45.70
13174;DHT22;6652;48.802;9.190;2023-07-20T09:35:13;32.00;47.10
13174;DHT22;6652;48.802;9.190;2023-07-20T09:37:46;31.50;48.60
13174;DHT22;6652;48.802;9.190;2023-07-20T09:40:14;30.90;48.40
13174;DHT22;6652;48.802;9.190;2023-07-20T09:42:41;30.50;48.10
13174;DHT22;6652;48.802;9.190;2023-07-20T09:45:10;30.50;49.20
13174;DHT22;6652;48.802;9.190;2023-07-20T09:47:39;32.20;48.00
13174;DHT22;6652;48.802;9.190;2023-07-20T09:50:07;33.80;46.10
13174;DHT22;6652;48.802;9.190;2023-07-20T09:52:38;35.00;44.10
13174;DHT22;6652;48.802;9.190;2023-07-20T09:55:07;35.40;42.60
13174;DHT22;6652;48.802;9.190;2023-07-20T09:57:34;34.80;41.80
13174;DHT22;6652;48.802;9.190;2023-07-20T10:00:02;33.30;43.00
13174;DHT22;6652;48.802;9.190;2023-07-20T10:02:34;31.70;43.70
13174;DHT22;6652;48.802;9.190;2023-07-20T10:05:05;31.40;45.70
13174;DHT22;6652;48.802;9.190;2023-07-20T10:07:34;31.40;44.80
13174;DHT22;6652;48.802;9.190;2023-07-20T10:10:03;32.10;45.50
13174;DHT22;6652;48.802;9.190;2023-07-20T10:12:31;33.10;44.10
13174;DHT22;6652;48.802;9.190;2023-07-20T10:15:06;34.30;42.90
13174;DHT22;6652;48.802;9.190;2023-07-20T10:17:40;34.60;41.50
13174;DHT22;6652;48.802;9.190;2023-07-20T10:20:09;34.80;41.30
13174;DHT22;6652;48.802;9.190;2023-07-20T10:22:37;34.40;41.00
13174;DHT22;6652;48.802;9.190;2023-07-20T10:25:05;34.80;39.80
13174;DHT22;6652;48.802;9.190;2023-07-20T10:27:34;34.00;39.70
13174;DHT22;6652;48.802;9.190;2023-07-20T10:30:01;34.10;40.60
13174;DHT22;6652;48.802;9.190;2023-07-20T10:32:30;33.40;40.50
13174;DHT22;6652;48.802;9.190;2023-07-20T10:34:57;32.80;41.20
13174;DHT22;6652;48.802;9.190;2023-07-20T10:37:50;33.30;41.50
13174;DHT22;6652;48.802;9.190;2023-07-20T10:40:26;33.50;40.40
13174;DHT22;6652;48.802;9.190;2023-07-20T10:42:57;32.40;41.00
13174;DHT22;6652;48.802;9.190;2023-07-20T10:45:33;31.50;42.30
13174;DHT22;6652;48.802;9.190;2023-07-20T10:48:03;31.50;43.00
13174;DHT22;6652;48.802;9.190;2023-07-20T10:50:30;32.00;42.20
13174;DHT22;6652;48.802;9.190;2023-07-20T10:53:10;31.50;43.20
13174;DHT22;6652;48.802;9.190;2023-07-20T10:55:37;30.70;42.50
13174;DHT22;6652;48.802;9.190;2023-07-20T10:58:09;30.20;44.40
13174;DHT22;6652;48.802;9.190;2023-07-20T11:00:36;29.90;44.90
13174;DHT22;6652;48.802;9.190;2023-07-20T11:03:04;29.80;45.00
13174;DHT22;6652;48.802;9.190;2023-07-20T11:05:37;29.40;45.00
13174;DHT22;6652;48.802;9.190;2023-07-20T11:08:09;29.10;44.80
13174;DHT22;6652;48.802;9.190;2023-07-20T11:10:36;28.80;45.90
13174;DHT22;6652;48.802;9.190;2023-07-20T11:13:19;29.00;46.50
13174;DHT22;6652;48.802;9.190;2023-07-20T11:15:47;29.50;47.30
13174;DHT22;6652;48.802;9.190;2023-07-20T11:18:14;29.80;46.00
13174;DHT22;6652;48.802;9.190;2023-07-20T11:20:42;29.90;45.10
13174;DHT22;6652;48.802;9.190;2023-07-20T11:23:10;29.80;44.30
13174;DHT22;6652;48.802;9.190;2023-07-20T11:25:39;29.80;44.20
13174;DHT22;6652;48.802;9.190;2023-07-20T11:28:08;29.70;44.90
13174;DHT22;6652;48.802;9.190;2023-07-20T11:30:36;29.60;44.20
13174;DHT22;6652;48.802;9.190;2023-07-20T11:33:04;29.50;44.80
13174;DHT22;6652;48.802;9.190;2023-07-20T11:35:34;29.10;45.10
13174;DHT22;6652;48.802;9.190;2023-07-20T11:38:13;29.10;45.90
13174;DHT22;6652;48.802;9.190;2023-07-20T11:40:43;29.30;45.10
13174;DHT22;6652;48.802;9.190;2023-07-20T11:43:11;29.40;45.40
13174;DHT22;6652;48.802;9.190;2023-07-20T11:45:38;29.40;44.90
13174;DHT22;6652;48.802;9.190;2023-07-20T11:48:05;29.30;45.20
13174;DHT22;6652;48.802;9.190;2023-07-20T11:50:38;29.30;44.80
13174;DHT22;6652;48.802;9.190;2023-07-20T11:53:06;29.40;45.20
13174;DHT22;6652;48.802;9.190;2023-07-20T11:55:34;29.40;45.00
13174;DHT22;6652;48.802;9.190;2023-07-20T11:58:02;29.50;44.60
13174;DHT22;6652;48.802;9.190;2023-07-20T12:00:29;29.20;43.50
13174;DHT22;6652;48.802;9.190;2023-07-20T12:02:56;29.20;44.20
13174;DHT22;6652;48.802;9.190;2023-07-20T12:05:23;29.10;43.90
13174;DHT22;6652;48.802;9.190;2023-07-20T12:07:51;29.20;44.80
13174;DHT22;6652;48.802;9.190;2023-07-20T12:10:24;29.20;45.00
13174;DHT22;6652;48.802;9.190;2023-07-20T12:12:52;29.10;44.20
13174;DHT22;6652;48.802;9.190;2023-07-20T12:15:21;29.10;43.90
13174;DHT22;6652;48.802;9.190;2023-07-20T12:17:50;29.30;44.30
13174;DHT22;6652;48.802;9.190;2023-07-20T12:20:28;29.40;43.80
13174;DHT22;6652;48.802;9.190;2023-07-20T12:22:57;29.30;43.40
13174;DHT22;6652;48.802;9.190;2023-07-20T12:25:33;29.10;43.30
13174;DHT22;6652;48.802;9.190;2023-07-20T12:28:02;29.00;43.80
13174;DHT22;6652;48.802;9.190;2023-07-20T12:30:30;28.90;43.10
13174;DHT22;6652;48.802;9.190;2023-07-20T12:32:57;28.90;44.20
13174;DHT22;6652;48.802;9.190;2023-07-20T12:35:24;29.10;43.90
13174;DHT22;6652;48.802;9.190;2023-07-20T12:37:51;29.20;43.50
13174;DHT22;6652;48.802;9.190;2023-07-20T12:40:19;29.10;44.40
13174;DHT22;6652;48.802;9.190;2023-07-20T12:42:46;29.30;45.50
13174;DHT22;6652;48.802;9.190;2023-07-20T12:45:14;29.50;44.60
13174;DHT22;6652;48.802;9.190;2023-07-20T12:47:41;29.80;44.80
13174;DHT22;6652;48.802;9.190;2023-07-20T12:50:09;29.90;44.40
13174;DHT22;6652;48.802;9.190;2023-07-20T12:52:36;29.90;43.60
13174;DHT22;6652;48.802;9.190;2023-07-20T12:55:04;29.80;42.80
13174;DHT22;6652;48.802;9.190;2023-07-20T12:57:32;29.50;43.00
13174;DHT22;6652;48.802;9.190;2023-07-20T12:59:59;29.30;43.10
13174;DHT22;6652;48.802;9.190;2023-07-20T13:02:28;29.00;43.50
13174;DHT22;6652;48.802;9.190;2023-07-20T13:04:55;28.80;42.30
13174;DHT22;6652;48.802;9.190;2023-07-20T13:07:30;28.40;42.40
13174;DHT22;6652;48.802;9.190;2023-07-20T13:09:57;28.30;44.10
13174;DHT22;6652;48.802;9.190;2023-07-20T13:12:26;28.70;44.10
13174;DHT22;6652;48.802;9.190;2023-07-20T13:14:52;28.50;43.80
13174;DHT22;6652;48.802;9.190;2023-07-20T13:17:19;28.60;43.60
13174;DHT22;6652;48.802;9.190;2023-07-20T13:19:48;28.80;43.20
13174;DHT22;6652;48.802;9.190;2023-07-20T13:22:18;28.90;43.20
13174;DHT22;6652;48.802;9.190;2023-07-20T13:24:45;29.20;43.30
13174;DHT22;6652;48.802;9.190;2023-07-20T13:27:14;29.20;42.80
13174;DHT22;6652;48.802;9.190;2023-07-20T13:29:41;29.20;42.10
13174;DHT22;6652;48.802;9.190;2023-07-20T13:32:09;29.10;41.80
13174;DHT22;6652;48.802;9.190;2023-07-20T13:34:36;28.90;42.20
13174;DHT22;6652;48.802;9.190;2023-07-20T13:37:05;28.60;42.50
13174;DHT22;6652;48.802;9.190;2023-07-20T13:39:32;28.50;42.60
13174;DHT22;6652;48.802;9.190;2023-07-20T13:41:59;28.60;42.70
13174;DHT22;6652;48.802;9.190;2023-07-20T13:44:28;28.60;42.70
13174;DHT22;6652;48.802;9.190;2023-07-20T13:46:54;28.50;43.20
13174;DHT22;6652;48.802;9.190;2023-07-20T13:49:22;28.40;42.90
13174;DHT22;6652;48.802;9.190;2023-07-20T13:51:49;28.40;43.70
13174;DHT22;6652;48.802;9.190;2023-07-20T13:54:17;28.50;43.70
13174;DHT22;6652;48.802;9.190;2023-07-20T13:56:44;28.70;44.00
13174;DHT22;6652;48.802;9.190;2023-07-20T13:59:12;28.70;43.90
13174;DHT22;6652;48.802;9.190;2023-07-20T14:01:39;28.70;43.40
13174;DHT22;6652;48.802;9.190;2023-07-20T14:04:06;28.90;43.60
13174;DHT22;6652;48.802;9.190;2023-07-20T14:06:33;28.90;43.40
13174;DHT22;6652;48.802;9.190;2023-07-20T14:09:03;28.90;43.20
13174;DHT22;6652;48.802;9.190;2023-07-20T14:11:31;29.00;43.50
13174;DHT22;6652;48.802;9.190;2023-07-20T14:13:59;29.00;42.40
13174;DHT22;6652;48.802;9.190;2023-07-20T14:16:26;28.90;42.40
13174;DHT22;6652;48.802;9.190;2023-07-20T14:18:53;28.80;42.90
13174;DHT22;6652;48.802;9.190;2023-07-20T14:21:21;29.10;43.00
13174;DHT22;6652;48.802;9.190;2023-07-20T14:23:51;28.60;42.20
13174;DHT22;6652;48.802;9.190;2023-07-20T14:26:18;28.70;42.80
13174;DHT22;6652;48.802;9.190;2023-07-20T14:28:47;28.60;43.40
13174;DHT22;6652;48.802;9.190;2023-07-20T14:31:14;28.50;42.40
13174;DHT22;6652;48.802;9.190;2023-07-20T14:33:40;28.40;41.90
13174;DHT22;6652;48.802;9.190;2023-07-20T14:36:12;28.80;42.40
13174;DHT22;6652;48.802;9.190;2023-07-20T14:38:42;28.60;42.50
13174;DHT22;6652;48.802;9.190;2023-07-20T14:41:10;28.60;42.10
13174;DHT22;6652;48.802;9.190;2023-07-20T14:43:37;28.90;42.10
13174;DHT22;6652;48.802;9.190;2023-07-20T14:46:06;28.60;41.30
13174;DHT22;6652;48.802;9.190;2023-07-20T14:48:33;28.60;42.20
13174;DHT22;6652;48.802;9.190;2023-07-20T14:50:59;28.60;41.30
13174;DHT22;6652;48.802;9.190;2023-07-20T14:53:26;28.60;41.80
13174;DHT22;6652;48.802;9.190;2023-07-20T14:55:58;28.30;41.20
13174;DHT22;6652;48.802;9.190;2023-07-20T14:58:25;28.00;40.80
13174;DHT22;6652;48.802;9.190;2023-07-20T15:00:52;28.00;41.30
13174;DHT22;6652;48.802;9.190;2023-07-20T15:03:20;28.00;41.10
13174;DHT22;6652;48.802;9.190;2023-07-20T15:05:47;28.00;41.70
13174;DHT22;6652;48.802;9.190;2023-07-20T15:08:14;27.90;41.50
13174;DHT22;6652;48.802;9.190;2023-07-20T15:10:44;28.10;42.20
13174;DHT22;6652;48.802;9.190;2023-07-20T15:13:12;28.50;42.70
13174;DHT22;6652;48.802;9.190;2023-07-20T15:15:38;28.30;42.50
13174;DHT22;6652;48.802;9.190;2023-07-20T15:18:05;28.30;41.90
13174;DHT22;6652;48.802;9.190;2023-07-20T15:20:34;28.30;41.70
13174;DHT22;6652;48.802;9.190;2023-07-20T15:23:01;28.20;41.50
13174;DHT22;6652;48.802;9.190;2023-07-20T15:25:28;28.20;41.70
13174;DHT22;6652;48.802;9.190;2023-07-20T15:27:54;28.10;42.50
13174;DHT22;6652;48.802;9.190;2023-07-20T15:30:21;28.20;42.50
13174;DHT22;6652;48.802;9.190;2023-07-20T15:32:48;28.20;42.50
13174;DHT22;6652;48.802;9.190;2023-07-20T15:35:15;28.20;42.70
13174;DHT22;6652;48.802;9.190;2023-07-20T15:37:44;28.20;42.30
13174;DHT22;6652;48.802;9.190;2023-07-20T15:40:12;28.20;42.20
13174;DHT22;6652;48.802;9.190;2023-07-20T15:42:39;28.30;42.20
13174;DHT22;6652;48.802;9.190;2023-07-20T15:45:07;28.40;42.30
13174;DHT22;6652;48.802;9.190;2023-07-20T15:47:34;28.30;41.70
13174;DHT22;6652;48.802;9.190;2023-07-20T15:50:01;28.10;42.00